Time;durP1;ratioP1;P1;durP2;ratioP2;P2;SDS_P1;SDS_P2;PMS_P1;PMS_P2;Temp;Humidity;BMP_temperature;BMP_pressure;BME280_temperature;BME280_humidity;BME280_pressure;Samples;Min_cycle;Max_cycle;Signal;HPM_P1;HPM_P2
2021/07/14 00:02:22;;;;;;;4.88;1.35;;;17.40;99.90;;;;;;5024606;28;20475;-61
2021/07/14 00:04:48;;;;;;;1.70;1.23;;;17.40;99.90;;;;;;5022251;28;20749;-62
2021/07/14 00:07:14;;;;;;;2.50;1.10;;;17.40;99.90;;;;;;5020986;28;20083;-60
2021/07/14 00:09:40;;;;;;;6.05;0.90;;;17.30;99.90;;;;;;5027018;28;20037;-62
2021/07/14 00:12:08;;;;;;;7.20;2.35;;;17.40;99.90;;;;;;5022415;28;20050;-62
2021/07/14 00:14:57;;;;;;;2.45;1.25;;;17.30;99.90;;;;;;5026134;28;20029;-61
2021/07/14 00:22:33;;;;;;;4.10;1.30;;;17.30;99.90;;;;;;5028174;28;20067;-61
2021/07/14 00:24:59;;;;;;;5.78;1.50;;;17.20;99.90;;;;;;5002636;28;20065;-61
2021/07/14 00:27:25;;;;;;;4.70;1.45;;;17.20;99.90;;;;;;5024149;28;20400;-63
2021/07/14 00:29:54;;;;;;;5.55;1.70;;;17.20;99.90;;;;;;5021081;28;20028;-64
2021/07/14 00:32:20;;;;;;;5.03;1.50;;;17.20;99.90;;;;;;5025835;28;20057;-63
2021/07/14 00:34:46;;;;;;;9.80;1.98;;;17.20;99.90;;;;;;5027517;28;20052;-62
2021/07/14 00:37:13;;;;;;;5.95;1.70;;;17.10;99.90;;;;;;5029201;28;20030;-63
2021/07/14 00:39:38;;;;;;;6.90;1.38;;;17.10;99.90;;;;;;5021888;28;20021;-61
2021/07/14 00:42:06;;;;;;;1.40;1.30;;;17.10;99.90;;;;;;5029082;28;20041;-63
2021/07/14 00:44:32;;;;;;;1.90;1.10;;;17.10;99.90;;;;;;5010790;28;20388;-61
2021/07/14 00:47:00;;;;;;;9.00;1.67;;;17.10;99.90;;;;;;5023923;28;20164;-62
2021/07/14 00:49:26;;;;;;;3.35;1.45;;;17.10;99.90;;;;;;5026381;28;20025;-61
2021/07/14 00:51:52;;;;;;;4.20;1.80;;;17.10;99.90;;;;;;5025712;28;20026;-62
2021/07/14 00:54:17;;;;;;;4.97;1.60;;;17.00;99.90;;;;;;5024920;28;20040;-63
2021/07/14 00:56:45;;;;;;;4.35;1.98;;;17.00;99.90;;;;;;5025051;28;20104;-61
2021/07/14 00:59:10;;;;;;;4.72;2.17;;;17.00;99.90;;;;;;5027172;28;20087;-62
2021/07/14 01:01:36;;;;;;;2.78;1.70;;;16.90;99.90;;;;;;5030864;28;20041;-62
2021/07/14 01:04:25;;;;;;;5.82;1.90;;;17.00;99.90;;;;;;5031058;28;20069;-60
2021/07/14 01:07:03;;;;;;;2.72;1.90;;;17.00;99.90;;;;;;5026327;28;20469;-63
2021/07/14 01:10:06;;;;;;;4.88;2.00;;;17.00;99.90;;;;;;5027952;28;20024;-62
2021/07/14 01:12:50;;;;;;;8.70;2.40;;;16.90;99.90;;;;;;5025620;28;20104;-62
2021/07/14 01:15:18;;;;;;;6.25;2.15;;;16.90;99.90;;;;;;5029540;28;20099;-62
2021/07/14 01:17:52;;;;;;;8.20;3.05;;;16.90;99.90;;;;;;5030808;28;20033;-61
2021/07/14 01:20:27;;;;;;;5.80;2.28;;;17.00;99.90;;;;;;5028350;28;20711;-61
2021/07/14 01:23:05;;;;;;;4.75;2.60;;;17.00;99.90;;;;;;5027716;28;20352;-62
2021/07/14 01:25:53;;;;;;;7.65;2.17;;;16.90;99.90;;;;;;5021670;28;20040;-62
2021/07/14 01:28:24;;;;;;;9.15;2.58;;;16.90;99.90;;;;;;5030721;28;20499;-62
2021/07/14 01:30:51;;;;;;;5.03;2.63;;;17.00;99.90;;;;;;5030487;28;20052;-61
2021/07/14 01:33:21;;;;;;;4.13;2.92;;;16.90;99.90;;;;;;5028769;28;20053;-62
2021/07/14 01:35:50;;;;;;;6.63;2.90;;;16.90;99.90;;;;;;5031480;28;20439;-63
2021/07/14 01:38:19;;;;;;;8.10;2.45;;;16.90;99.90;;;;;;5028365;28;20060;-61
2021/07/14 01:40:46;;;;;;;24.70;4.38;;;16.90;99.90;;;;;;5014624;28;20116;-62
2021/07/14 01:43:13;;;;;;;8.80;3.30;;;16.90;99.90;;;;;;5028132;28;20026;-61
2021/07/14 01:45:40;;;;;;;9.55;3.17;;;16.90;99.90;;;;;;5028462;28;20049;-61
2021/07/14 01:48:10;;;;;;;3.25;2.83;;;16.90;99.90;;;;;;5029436;28;20033;-61
2021/07/14 01:50:36;;;;;;;7.65;4.70;;;16.90;99.90;;;;;;5032038;28;20025;-62
2021/07/14 01:53:02;;;;;;;5.20;3.65;;;17.00;99.90;;;;;;5022907;28;20116;-63
2021/07/14 01:55:30;;;;;;;7.53;3.60;;;17.00;99.90;;;;;;5021450;28;20026;-60
2021/07/14 01:57:58;;;;;;;6.68;3.35;;;17.00;99.90;;;;;;5029848;28;20433;-62
2021/07/14 02:00:24;;;;;;;7.75;3.67;;;16.90;99.90;;;;;;5029202;28;20048;-62
2021/07/14 02:03:28;;;;;;;11.50;3.95;;;16.90;99.90;;;;;;5028237;28;20052;-63
2021/07/14 02:05:38;;;;;;;7.15;3.90;;;16.90;99.90;;;;;;5028211;28;20053;-62
2021/07/14 02:08:05;;;;;;;7.85;3.90;;;16.90;99.90;;;;;;5029167;28;20029;-63
2021/07/14 02:10:32;;;;;;;6.30;3.45;;;16.90;99.90;;;;;;5029591;28;20025;-62
2021/07/14 02:13:00;;;;;;;7.60;3.70;;;16.90;99.90;;;;;;5030653;28;20033;-61
2021/07/14 02:15:27;;;;;;;10.43;4.05;;;16.80;99.90;;;;;;5029052;28;20025;-62
2021/07/14 02:18:06;;;;;;;9.38;4.28;;;16.90;99.90;;;;;;5028782;28;20026;-62
2021/07/14 02:20:32;;;;;;;5.45;4.00;;;16.90;99.90;;;;;;5027289;28;20475;-62
2021/07/14 02:23:00;;;;;;;6.97;4.07;;;16.90;99.90;;;;;;5025113;28;20025;-62
2021/07/14 02:25:25;;;;;;;12.90;4.88;;;16.90;99.90;;;;;;5008288;28;20082;-63
2021/07/14 02:27:51;;;;;;;8.00;3.88;;;16.80;99.90;;;;;;5028897;28;20100;-62
2021/07/14 02:30:19;;;;;;;7.78;4.57;;;16.90;99.90;;;;;;5027845;28;20056;-61
2021/07/14 02:32:48;;;;;;;31.52;6.30;;;16.80;99.90;;;;;;5026275;28;20021;-62
2021/07/14 02:35:14;;;;;;;13.18;5.18;;;16.80;99.90;;;;;;5026846;28;20079;-61
2021/07/14 02:37:49;;;;;;;7.22;4.50;;;16.80;99.90;;;;;;5030981;28;20091;-62
2021/07/14 02:40:21;;;;;;;7.25;4.38;;;16.80;99.90;;;;;;5012040;28;20034;-63
2021/07/14 02:42:48;;;;;;;10.10;4.00;;;16.90;99.90;;;;;;5029808;28;20570;-62
2021/07/14 02:45:13;;;;;;;7.13;5.07;;;16.80;99.90;;;;;;5025650;28;20032;-62
2021/07/14 02:47:41;;;;;;;5.38;3.80;;;16.80;99.90;;;;;;5027538;28;20045;-63
2021/07/14 02:50:30;;;;;;;4.30;3.45;;;16.80;99.90;;;;;;5029833;28;20499;-62
2021/07/14 02:53:04;;;;;;;10.63;5.10;;;16.90;99.90;;;;;;5027119;28;20418;-63
2021/07/14 02:55:33;;;;;;;11.77;4.40;;;16.80;99.90;;;;;;5024918;28;20038;-62
2021/07/14 02:58:00;;;;;;;11.02;5.00;;;16.80;99.90;;;;;;5021553;28;20120;-61
2021/07/14 03:00:28;;;;;;;6.65;4.20;;;16.80;99.90;;;;;;5025285;28;20061;-61
2021/07/14 03:02:54;;;;;;;14.20;4.72;;;16.80;99.90;;;;;;5028390;28;20060;-61
2021/07/14 03:05:20;;;;;;;11.10;4.53;;;16.80;99.90;;;;;;5027252;28;20037;-61
2021/07/14 03:07:48;;;;;;;7.00;4.13;;;16.80;99.90;;;;;;5023368;28;20028;-62
2021/07/14 03:10:17;;;;;;;5.28;4.60;;;16.80;99.90;;;;;;5029114;28;20395;-63
2021/07/14 03:12:45;;;;;;;13.68;4.50;;;16.70;99.90;;;;;;5028635;28;20610;-62
2021/07/14 03:15:11;;;;;;;7.35;4.57;;;16.70;99.90;;;;;;5027841;28;20033;-56
2021/07/14 03:17:38;;;;;;;12.63;4.80;;;16.80;99.90;;;;;;5028055;28;20030;-63
2021/07/14 03:20:08;;;;;;;11.00;4.95;;;16.80;99.90;;;;;;5025002;28;20818;-63
2021/07/14 03:22:36;;;;;;;8.80;4.40;;;16.80;99.90;;;;;;5029794;28;20032;-63
2021/07/14 03:25:02;;;;;;;11.13;4.45;;;16.80;99.90;;;;;;5025555;28;20030;-62
2021/07/14 03:27:28;;;;;;;6.45;4.40;;;16.80;99.90;;;;;;5008980;28;20710;-62
2021/07/14 03:29:54;;;;;;;7.45;4.40;;;16.80;99.90;;;;;;5028046;28;20140;-62
2021/07/14 03:32:20;;;;;;;8.18;5.03;;;16.80;99.90;;;;;;5028529;28;20029;-62
2021/07/14 03:34:46;;;;;;;11.65;4.40;;;16.80;99.90;;;;;;5025912;28;20104;-62
2021/07/14 03:37:12;;;;;;;8.82;4.60;;;16.80;99.90;;;;;;5022075;28;20026;-61
2021/07/14 03:39:41;;;;;;;4.65;3.60;;;16.80;99.90;;;;;;5025977;28;20040;-62
2021/07/14 03:42:13;;;;;;;13.55;4.72;;;16.80;99.90;;;;;;5026875;28;20018;-61
2021/07/14 03:44:40;;;;;;;7.70;4.33;;;16.80;99.90;;;;;;5028458;28;20083;-63
2021/07/14 03:47:06;;;;;;;14.20;4.85;;;16.80;99.90;;;;;;5023497;28;20435;-63
2021/07/14 03:49:34;;;;;;;5.60;3.83;;;16.80;99.90;;;;;;5011030;28;20029;-62
2021/07/14 03:52:00;;;;;;;7.35;3.90;;;16.80;99.90;;;;;;5029034;28;20442;-62
2021/07/14 03:54:27;;;;;;;6.50;4.25;;;16.80;99.90;;;;;;5021784;28;20483;-62
2021/07/14 03:56:54;;;;;;;16.75;5.05;;;16.80;99.90;;;;;;5004033;28;20088;-62
2021/07/14 03:59:20;;;;;;;7.20;4.18;;;16.90;99.90;;;;;;5025247;28;20441;-62
2021/07/14 04:01:47;;;;;;;10.57;4.25;;;16.80;99.90;;;;;;5004596;28;20022;-62
2021/07/14 04:04:12;;;;;;;8.95;4.30;;;16.80;99.90;;;;;;5028367;28;20033;-62
2021/07/14 04:06:40;;;;;;;7.30;4.03;;;16.80;99.90;;;;;;5027847;28;20033;-62
2021/07/14 04:09:18;;;;;;;7.55;4.03;;;16.80;99.90;;;;;;5025482;28;20104;-62
2021/07/14 04:11:44;;;;;;;7.57;4.32;;;16.80;99.90;;;;;;5019768;28;20044;-63
2021/07/14 04:14:10;;;;;;;6.40;4.22;;;16.80;99.90;;;;;;5027766;28;20057;-62
2021/07/14 04:16:35;;;;;;;9.13;3.95;;;16.70;99.90;;;;;;5029095;28;20501;-62
2021/07/14 04:19:01;;;;;;;5.05;3.72;;;16.70;99.90;;;;;;5033070;28;20021;-63
2021/07/14 04:21:28;;;;;;;6.53;4.00;;;16.70;99.90;;;;;;5030318;28;20033;-62
2021/07/14 04:23:55;;;;;;;10.52;4.25;;;16.70;99.90;;;;;;5032562;28;20406;-62
2021/07/14 04:26:21;;;;;;;5.43;4.05;;;16.70;99.90;;;;;;5027549;28;20029;-62
2021/07/14 04:28:47;;;;;;;6.93;3.92;;;16.70;99.90;;;;;;5031545;28;20563;-63
2021/07/14 04:31:12;;;;;;;4.97;3.83;;;16.70;99.90;;;;;;5030196;28;20363;-61
2021/07/14 04:33:38;;;;;;;16.02;3.95;;;16.70;99.90;;;;;;5026520;28;20030;-62
2021/07/14 04:36:04;;;;;;;7.60;3.88;;;16.70;99.90;;;;;;5030991;28;20092;-62
2021/07/14 04:38:30;;;;;;;13.90;3.72;;;16.70;99.90;;;;;;5028172;28;20033;-62
2021/07/14 04:40:55;;;;;;;6.60;4.28;;;16.70;99.90;;;;;;5032454;28;20490;-62
2021/07/14 04:43:21;;;;;;;6.55;4.25;;;16.70;99.90;;;;;;5030456;28;20021;-63
2021/07/14 04:45:46;;;;;;;11.65;4.07;;;16.70;99.90;;;;;;5031895;28;20026;-62
2021/07/14 04:48:12;;;;;;;15.60;5.15;;;16.70;99.90;;;;;;5029899;28;20075;-63
2021/07/14 04:50:38;;;;;;;9.82;4.22;;;16.70;99.90;;;;;;5029538;28;20036;-63
2021/07/14 04:53:03;;;;;;;12.57;3.85;;;16.70;99.90;;;;;;5029959;28;20044;-62
2021/07/14 04:55:29;;;;;;;8.48;3.42;;;16.70;99.90;;;;;;5030446;28;20044;-61
2021/07/14 04:57:54;;;;;;;9.10;3.47;;;16.70;99.90;;;;;;5028995;28;20040;-64
2021/07/14 05:00:20;;;;;;;8.25;3.20;;;16.70;99.90;;;;;;5029067;28;20034;-62
2021/07/14 05:02:46;;;;;;;8.63;3.08;;;16.80;99.90;;;;;;5031418;28;20029;-62
2021/07/14 05:05:16;;;;;;;5.45;3.28;;;16.80;99.90;;;;;;5024394;28;20022;-62
2021/07/14 05:07:42;;;;;;;14.88;5.35;;;16.80;99.90;;;;;;5029650;28;20049;-61
2021/07/14 05:10:09;;;;;;;9.10;3.95;;;16.80;99.90;;;;;;5030124;28;20032;-62
2021/07/14 05:12:35;;;;;;;9.95;3.20;;;16.80;99.90;;;;;;5032137;28;20033;-63
2021/07/14 05:15:01;;;;;;;6.03;2.25;;;16.80;99.90;;;;;;5030510;28;20159;-63
2021/07/14 05:17:27;;;;;;;7.03;2.35;;;16.80;99.90;;;;;;5032294;28;20090;-62
2021/07/14 05:19:53;;;;;;;2.75;2.53;;;16.90;99.90;;;;;;5031039;28;20068;-63
2021/07/14 05:22:20;;;;;;;6.70;2.72;;;16.80;99.90;;;;;;5032679;28;20133;-62
2021/07/14 05:24:46;;;;;;;5.65;2.58;;;16.90;99.90;;;;;;5028784;28;20507;-63
2021/07/14 05:27:12;;;;;;;7.88;2.38;;;16.90;99.90;;;;;;5030414;28;20029;-62
2021/07/14 05:29:37;;;;;;;5.05;2.38;;;17.00;99.90;;;;;;5029323;28;20044;-63
2021/07/14 05:32:04;;;;;;;10.63;2.60;;;16.90;99.90;;;;;;5030714;28;20022;-62
2021/07/14 05:34:29;;;;;;;9.63;3.08;;;17.00;99.90;;;;;;5027489;28;20475;-61
2021/07/14 05:36:55;;;;;;;9.80;2.90;;;17.10;99.90;;;;;;5031822;28;20040;-63
2021/07/14 05:39:21;;;;;;;5.70;3.15;;;17.00;99.90;;;;;;5031002;28;20393;-62
2021/07/14 05:41:46;;;;;;;3.65;3.35;;;17.00;99.90;;;;;;5030554;28;20045;-63
2021/07/14 05:44:12;;;;;;;5.43;3.72;;;17.00;99.90;;;;;;5025460;28;20033;-64
2021/07/14 05:46:37;;;;;;;9.43;3.80;;;17.00;99.90;;;;;;5030562;28;20034;-63
2021/07/14 05:49:03;;;;;;;6.28;3.80;;;17.00;99.90;;;;;;5028925;28;20025;-63
2021/07/14 05:51:32;;;;;;;5.65;3.80;;;16.90;99.90;;;;;;5025837;28;20112;-63
2021/07/14 05:53:59;;;;;;;2.88;2.67;;;16.90;99.90;;;;;;5030515;28;20548;-62
2021/07/14 05:56:25;;;;;;;4.40;3.45;;;16.90;99.90;;;;;;5031108;28;20064;-63
2021/07/14 05:58:50;;;;;;;11.98;3.05;;;16.80;99.90;;;;;;5031829;28;20459;-62
2021/07/14 06:01:16;;;;;;;3.15;2.75;;;16.90;99.90;;;;;;5028806;28;20055;-62
2021/07/14 06:03:42;;;;;;;9.15;2.53;;;16.90;99.90;;;;;;5029940;28;20396;-62
2021/07/14 06:06:08;;;;;;;2.83;2.42;;;17.00;99.90;;;;;;5029733;28;20079;-62
2021/07/14 06:08:34;;;;;;;4.60;2.75;;;17.00;99.90;;;;;;5031440;28;20029;-62
2021/07/14 06:10:59;;;;;;;9.85;2.67;;;17.00;99.90;;;;;;5030692;28;20028;-62
2021/07/14 06:13:25;;;;;;;6.53;2.80;;;17.10;99.90;;;;;;5012833;28;20022;-62
2021/07/14 06:15:50;;;;;;;6.53;3.05;;;17.10;99.90;;;;;;5027105;28;20067;-62
2021/07/14 06:18:16;;;;;;;5.05;2.70;;;17.10;99.90;;;;;;5025572;28;20109;-63
2021/07/14 06:20:42;;;;;;;2.95;2.65;;;17.10;99.90;;;;;;5031893;28;20025;-62
2021/07/14 06:23:08;;;;;;;9.75;2.58;;;17.10;99.90;;;;;;5029481;28;20026;-62
2021/07/14 06:25:33;;;;;;;6.82;2.70;;;17.10;99.90;;;;;;5029194;28;20209;-62
2021/07/14 06:28:00;;;;;;;5.32;2.50;;;17.10;99.90;;;;;;5027274;28;20036;-63
2021/07/14 06:30:26;;;;;;;2.50;2.30;;;17.10;99.90;;;;;;5030943;28;20025;-62
2021/07/14 06:32:52;;;;;;;3.47;2.75;;;17.10;99.90;;;;;;5029810;28;20025;-63
2021/07/14 06:35:19;;;;;;;3.95;2.65;;;17.20;99.90;;;;;;5031253;28;20025;-62
2021/07/14 06:37:46;;;;;;;4.10;2.78;;;17.20;99.90;;;;;;5011552;28;20380;-62
2021/07/14 06:40:12;;;;;;;3.47;2.78;;;17.20;99.90;;;;;;5027251;28;20022;-62
2021/07/14 06:42:38;;;;;;;4.50;2.55;;;17.20;99.90;;;;;;5028564;28;20533;-62
2021/07/14 06:45:09;;;;;;;5.13;2.67;;;17.20;99.90;;;;;;5030279;28;20025;-62
2021/07/14 06:47:35;;;;;;;7.05;2.90;;;17.30;99.90;;;;;;5021329;28;20036;-62
2021/07/14 06:50:05;;;;;;;5.68;3.03;;;17.30;99.90;;;;;;5029582;28;20037;-62
2021/07/14 06:52:30;;;;;;;5.28;2.33;;;17.30;99.90;;;;;;5021528;28;20044;-62
2021/07/14 06:54:56;;;;;;;5.43;2.85;;;17.30;99.90;;;;;;5028044;28;20018;-62
2021/07/14 06:57:24;;;;;;;6.15;3.15;;;17.30;99.90;;;;;;5029566;28;20033;-63
2021/07/14 06:59:50;;;;;;;5.18;2.70;;;17.20;99.90;;;;;;5030321;28;20032;-63
2021/07/14 07:02:16;;;;;;;5.93;2.83;;;17.20;99.90;;;;;;5024212;28;20041;-62
2021/07/14 07:04:41;;;;;;;6.45;3.25;;;17.10;99.90;;;;;;5030015;28;20044;-63
2021/07/14 07:07:07;;;;;;;3.40;2.80;;;17.10;99.90;;;;;;5027639;28;20041;-62
2021/07/14 07:09:33;;;;;;;4.75;2.85;;;17.10;99.90;;;;;;5029483;28;20398;-62
2021/07/14 07:11:59;;;;;;;5.88;3.70;;;17.10;99.90;;;;;;5011028;28;20029;-62
2021/07/14 07:14:24;;;;;;;5.88;2.70;;;17.10;99.90;;;;;;5028765;28;20030;-62
2021/07/14 07:16:50;;;;;;;6.35;3.80;;;17.00;99.90;;;;;;5028331;28;20109;-62
2021/07/14 07:19:15;;;;;;;5.20;3.63;;;17.10;99.90;;;;;;5030105;28;20076;-59
2021/07/14 07:21:41;;;;;;;4.68;3.40;;;17.10;99.90;;;;;;5027459;28;20032;-63
2021/07/14 07:24:07;;;;;;;5.32;2.95;;;17.10;99.90;;;;;;5029476;28;20120;-62
2021/07/14 07:26:32;;;;;;;4.18;2.92;;;17.10;99.90;;;;;;5028245;28;20025;-62
2021/07/14 07:29:03;;;;;;;7.97;3.45;;;17.10;99.90;;;;;;5028285;28;20087;-62
2021/07/14 07:31:28;;;;;;;6.28;3.30;;;17.10;99.90;;;;;;5024690;28;20037;-62
2021/07/14 07:33:54;;;;;;;8.52;3.47;;;17.10;99.90;;;;;;5030309;28;20037;-62
2021/07/14 07:36:19;;;;;;;8.20;3.83;;;17.10;99.90;;;;;;5028611;28;20029;-59
2021/07/14 07:38:45;;;;;;;7.13;3.83;;;17.10;99.90;;;;;;5028695;28;20057;-61
2021/07/14 07:41:12;;;;;;;4.40;3.33;;;17.20;99.90;;;;;;5026645;28;20029;-63
2021/07/14 07:43:38;;;;;;;5.60;3.20;;;17.20;99.90;;;;;;5027364;28;20477;-62
2021/07/14 07:46:04;;;;;;;4.15;3.33;;;17.20;99.90;;;;;;5010403;28;20108;-63
2021/07/14 07:48:30;;;;;;;3.92;3.55;;;17.20;99.90;;;;;;5028103;28;20032;-63
2021/07/14 07:50:56;;;;;;;4.63;3.20;;;17.20;99.90;;;;;;5030073;28;20029;-61
2021/07/14 07:53:23;;;;;;;3.25;2.95;;;17.20;99.90;;;;;;5024132;28;20021;-62
2021/07/14 07:55:50;;;;;;;4.53;2.95;;;17.20;99.90;;;;;;5028024;28;20037;-63
2021/07/14 07:58:16;;;;;;;4.47;2.70;;;17.20;99.90;;;;;;5008664;28;20041;-63
2021/07/14 08:00:42;;;;;;;16.05;3.42;;;17.20;99.90;;;;;;5027011;28;20028;-60
2021/07/14 08:03:07;;;;;;;3.25;2.58;;;17.20;99.90;;;;;;5026840;28;20029;-63
2021/07/14 08:05:33;;;;;;;3.78;2.83;;;17.20;99.90;;;;;;5026820;28;20031;-63
2021/07/14 08:07:59;;;;;;;4.70;3.58;;;17.30;99.90;;;;;;5027640;28;20454;-63
2021/07/14 08:10:25;;;;;;;11.88;3.00;;;17.30;99.90;;;;;;5029948;28;20018;-62
2021/07/14 08:12:51;;;;;;;4.53;3.08;;;17.30;99.90;;;;;;5026642;28;20032;-61
2021/07/14 08:15:17;;;;;;;3.50;2.53;;;17.30;99.90;;;;;;5026780;28;20513;-60
2021/07/14 08:17:43;;;;;;;3.78;2.72;;;17.30;99.90;;;;;;5027667;28;20033;-62
2021/07/14 08:20:11;;;;;;;6.68;2.92;;;17.30;99.90;;;;;;5026729;28;20077;-62
2021/07/14 08:22:38;;;;;;;7.32;2.75;;;17.30;99.90;;;;;;5028852;28;20521;-62
2021/07/14 08:25:08;;;;;;;6.80;2.65;;;17.30;99.90;;;;;;5026867;28;20755;-63
2021/07/14 08:27:35;;;;;;;3.30;2.47;;;17.30;99.90;;;;;;5026105;28;20025;-63
2021/07/14 08:30:00;;;;;;;6.72;2.50;;;17.40;99.90;;;;;;5009392;28;20053;-63
2021/07/14 08:32:27;;;;;;;3.13;2.30;;;17.30;99.90;;;;;;5029135;28;20090;-63
2021/07/14 08:34:54;;;;;;;4.18;2.13;;;17.40;99.90;;;;;;5026362;28;20026;-62
2021/07/14 08:37:19;;;;;;;3.60;2.17;;;17.40;99.90;;;;;;5029587;28;20607;-63
2021/07/14 08:39:45;;;;;;;9.80;2.50;;;17.30;99.90;;;;;;5024615;28;20018;-61
2021/07/14 08:42:14;;;;;;;8.57;2.35;;;17.40;99.90;;;;;;5025577;28;20021;-63
2021/07/14 08:44:40;;;;;;;9.50;2.83;;;17.40;99.90;;;;;;5024580;28;20030;-62
2021/07/14 08:47:07;;;;;;;9.95;2.45;;;17.50;99.90;;;;;;5027861;28;20021;-62
2021/07/14 08:49:36;;;;;;;9.50;2.67;;;17.50;99.90;;;;;;5026667;28;20455;-62
2021/07/14 08:52:02;;;;;;;2.40;2.20;;;17.40;99.90;;;;;;5028836;28;20075;-60
2021/07/14 08:54:27;;;;;;;5.78;1.92;;;17.50;99.90;;;;;;5026450;28;20025;-62
2021/07/14 08:56:53;;;;;;;5.00;1.85;;;17.40;99.90;;;;;;5027281;28;20069;-63
2021/07/14 08:59:19;;;;;;;1.77;1.50;;;17.30;99.90;;;;;;5027439;28;20044;-61
2021/07/14 09:01:46;;;;;;;1.98;1.58;;;17.40;99.90;;;;;;5025472;28;20033;-62
2021/07/14 09:04:12;;;;;;;3.28;1.50;;;17.40;99.90;;;;;;5026072;28;20036;-61
2021/07/14 09:06:38;;;;;;;7.97;2.28;;;17.40;99.90;;;;;;5032181;28;20029;-63
2021/07/14 09:09:04;;;;;;;3.92;2.17;;;17.40;99.90;;;;;;5027674;28;20391;-63
2021/07/14 09:11:30;;;;;;;3.42;1.33;;;17.40;99.90;;;;;;5026280;28;20105;-62
2021/07/14 09:13:56;;;;;;;3.72;2.08;;;17.40;99.90;;;;;;5030937;28;20112;-61
2021/07/14 09:16:35;;;;;;;3.50;1.92;;;17.40;99.90;;;;;;5028889;28;20040;-63
2021/07/14 09:19:14;;;;;;;3.13;2.10;;;17.40;99.90;;;;;;5028996;28;20034;-63
2021/07/14 09:21:41;;;;;;;2.00;1.80;;;17.40;99.90;;;;;;5032578;28;20021;-62
2021/07/14 09:24:32;;;;;;;8.90;1.80;;;17.40;99.90;;;;;;5031251;28;20083;-63
2021/07/14 09:27:01;;;;;;;11.50;1.75;;;17.40;99.90;;;;;;5027534;28;20040;-62
2021/07/14 09:29:26;;;;;;;8.05;2.13;;;17.40;99.90;;;;;;5030149;28;20048;-62
2021/07/14 09:31:53;;;;;;;5.22;1.90;;;17.30;99.90;;;;;;5031342;28;20498;-62
2021/07/14 09:34:30;;;;;;;2.97;1.50;;;17.30;99.90;;;;;;5012748;28;20032;-63
2021/07/14 09:37:04;;;;;;;1.40;1.30;;;17.40;99.90;;;;;;5025137;28;20493;-63
2021/07/14 09:39:34;;;;;;;6.93;1.60;;;17.30;99.90;;;;;;5025155;28;20036;-63
2021/07/14 09:42:04;;;;;;;1.67;1.35;;;17.30;99.90;;;;;;5021236;28;20511;-61
2021/07/14 09:44:29;;;;;;;3.28;1.63;;;17.40;99.90;;;;;;5024779;28;20080;-63
2021/07/14 09:47:15;;;;;;;14.88;1.38;;;17.40;99.90;;;;;;5025016;28;20495;-62
2021/07/14 09:49:42;;;;;;;1.05;0.90;;;17.50;99.90;;;;;;5026316;28;20040;-62
2021/07/14 09:52:17;;;;;;;1.73;0.80;;;17.50;99.90;;;;;;5031027;28;20105;-62
2021/07/14 09:54:43;;;;;;;1.38;0.75;;;17.40;99.90;;;;;;5030798;28;20022;-62
2021/07/14 09:57:14;;;;;;;1.17;1.08;;;17.50;99.90;;;;;;5027651;28;20033;-63
2021/07/14 09:59:41;;;;;;;3.75;1.15;;;17.50;99.90;;;;;;5012413;28;20042;-62
2021/07/14 10:02:11;;;;;;;4.88;0.90;;;17.50;99.90;;;;;;5026401;28;20042;-62
2021/07/14 10:04:37;;;;;;;2.97;0.80;;;17.60;99.90;;;;;;5029791;28;20030;-63
2021/07/14 10:07:29;;;;;;;2.90;1.10;;;17.60;99.90;;;;;;5030555;28;20080;-62
2021/07/14 10:10:11;;;;;;;1.25;0.80;;;17.60;99.90;;;;;;5027472;28;20107;-61
2021/07/14 10:12:37;;;;;;;0.80;0.80;;;17.70;99.90;;;;;;5026400;28;20087;-60
2021/07/14 10:15:15;;;;;;;3.45;1.20;;;17.80;99.90;;;;;;5031434;28;20057;-60
2021/07/14 10:17:44;;;;;;;1.35;0.85;;;17.90;99.90;;;;;;5028971;28;20033;-60
2021/07/14 10:20:21;;;;;;;2.20;1.02;;;17.90;99.90;;;;;;5033583;28;20029;-62
2021/07/14 10:22:55;;;;;;;1.83;0.68;;;17.90;99.90;;;;;;5027658;28;20033;-61
2021/07/14 10:25:22;;;;;;;1.70;1.02;;;18.00;99.90;;;;;;5022829;28;20029;-61
2021/07/14 10:27:50;;;;;;;0.85;0.85;;;18.00;99.90;;;;;;5005489;28;20044;-62
2021/07/14 10:30:17;;;;;;;1.58;0.98;;;18.00;99.90;;;;;;5010115;28;20022;-62
2021/07/14 10:32:44;;;;;;;0.75;0.75;;;18.10;99.90;;;;;;5025105;28;20502;-62
2021/07/14 10:35:14;;;;;;;0.90;0.90;;;18.00;99.90;;;;;;5027606;28;20040;-61
2021/07/14 10:37:44;;;;;;;1.15;1.05;;;18.00;99.90;;;;;;5007527;28;20034;-62
2021/07/14 10:40:11;;;;;;;2.20;0.98;;;18.00;99.90;;;;;;5025877;28;20030;-62
2021/07/14 10:42:37;;;;;;;4.47;1.10;;;18.10;99.90;;;;;;5030522;28;20022;-61
2021/07/14 10:45:04;;;;;;;0.52;0.52;;;18.10;99.90;;;;;;5011832;28;20026;-61
2021/07/14 10:47:30;;;;;;;0.68;0.60;;;18.20;99.90;;;;;;5022525;28;20025;-61
2021/07/14 10:49:57;;;;;;;2.38;0.85;;;18.20;99.90;;;;;;5029290;28;20044;-61
2021/07/14 10:52:24;;;;;;;0.98;0.82;;;18.30;99.90;;;;;;5031383;28;20021;-62
2021/07/14 10:54:52;;;;;;;1.10;0.80;;;18.30;99.90;;;;;;5035054;28;20434;-62
2021/07/14 10:57:20;;;;;;;1.25;1.08;;;18.40;99.90;;;;;;5025799;28;20041;-61
2021/07/14 10:59:47;;;;;;;2.35;0.90;;;18.40;99.90;;;;;;5029003;28;20030;-63
2021/07/14 11:02:16;;;;;;;0.65;0.65;;;18.50;99.90;;;;;;5028461;28;20475;-61
2021/07/14 11:04:50;;;;;;;1.27;0.68;;;18.60;99.90;;;;;;5021789;28;20030;-61
2021/07/14 11:07:17;;;;;;;0.60;0.60;;;18.50;99.90;;;;;;5023889;28;20510;-63
2021/07/14 11:09:46;;;;;;;2.92;0.82;;;18.40;99.90;;;;;;5023549;28;20562;-60
2021/07/14 11:12:38;;;;;;;1.13;0.95;;;18.50;99.90;;;;;;5011114;28;20034;-61
2021/07/14 11:15:06;;;;;;;3.15;0.88;;;18.50;99.90;;;;;;5024690;28;20052;-62
2021/07/14 11:17:34;;;;;;;2.05;0.80;;;18.50;99.90;;;;;;5024576;28;20488;-62
2021/07/14 11:20:10;;;;;;;3.70;0.70;;;18.60;99.90;;;;;;5030854;28;20053;-62
2021/07/14 11:22:49;;;;;;;1.92;1.05;;;18.60;99.90;;;;;;5011796;28;20042;-62
2021/07/14 11:25:20;;;;;;;3.75;1.15;;;18.70;99.90;;;;;;5020389;28;20022;-61
2021/07/14 11:27:53;;;;;;;0.88;0.88;;;18.80;99.90;;;;;;5025979;28;20053;-61
2021/07/14 11:30:21;;;;;;;0.73;0.70;;;18.80;99.90;;;;;;5027111;28;20024;-61
2021/07/14 11:32:46;;;;;;;0.82;0.80;;;18.70;99.90;;;;;;5035866;28;20033;-62
2021/07/14 11:35:16;;;;;;;0.70;0.70;;;18.70;99.90;;;;;;5024562;28;20021;-63
2021/07/14 11:37:42;;;;;;;5.25;1.20;;;18.50;99.90;;;;;;5026375;28;20120;-61
2021/07/14 11:40:25;;;;;;;1.27;0.88;;;18.50;99.90;;;;;;5024752;28;20100;-62
2021/07/14 11:42:54;;;;;;;1.48;1.00;;;18.40;99.90;;;;;;5028678;28;20049;-62
2021/07/14 11:46:07;;;;;;;6.05;1.30;;;18.30;99.90;;;;;;5007683;28;20071;-61
2021/07/14 11:48:34;;;;;;;8.70;1.13;;;18.30;99.90;;;;;;4991216;28;20398;-62
2021/07/14 11:51:06;;;;;;;3.83;1.20;;;18.20;99.90;;;;;;5026531;28;20112;-62
2021/07/14 11:53:37;;;;;;;2.65;1.15;;;18.10;99.90;;;;;;5027800;28;20061;-61
2021/07/14 11:56:22;;;;;;;2.22;0.93;;;18.10;99.90;;;;;;5034152;28;20024;-62
2021/07/14 11:59:08;;;;;;;0.95;0.77;;;18.10;99.90;;;;;;5022193;28;20029;-61
2021/07/14 12:01:33;;;;;;;4.45;1.00;;;18.10;99.90;;;;;;5013393;28;20030;-61
2021/07/14 12:03:59;;;;;;;2.72;0.80;;;18.00;99.90;;;;;;5015047;28;20018;-62
2021/07/14 12:06:34;;;;;;;1.48;1.30;;;18.00;99.90;;;;;;4995424;28;20483;-61
2021/07/14 12:09:11;;;;;;;10.20;1.40;;;18.00;99.90;;;;;;5025711;28;20053;-62
2021/07/14 12:11:43;;;;;;;1.20;1.10;;;17.90;99.90;;;;;;5023022;28;20033;-61
2021/07/14 12:14:12;;;;;;;1.48;1.08;;;17.90;99.90;;;;;;5023216;28;20022;-62
2021/07/14 12:16:37;;;;;;;5.07;0.77;;;17.90;99.90;;;;;;5018574;28;20025;-61
2021/07/14 12:19:03;;;;;;;3.33;0.73;;;17.90;99.90;;;;;;5021808;28;20072;-62
2021/07/14 12:21:37;;;;;;;3.20;1.33;;;17.90;99.90;;;;;;5020929;28;20037;-61
2021/07/14 12:24:03;;;;;;;6.70;1.58;;;17.80;99.90;;;;;;5020913;28;20022;-61
2021/07/14 12:26:29;;;;;;;2.05;1.13;;;17.80;99.90;;;;;;5004078;28;20029;-63
2021/07/14 12:28:55;;;;;;;3.20;1.10;;;17.80;99.90;;;;;;5021294;28;20036;-60
2021/07/14 12:31:21;;;;;;;4.63;0.82;;;17.80;99.90;;;;;;5022363;28;20057;-62
2021/07/14 12:33:51;;;;;;;1.17;0.85;;;17.80;99.90;;;;;;5021820;28;20053;-61
2021/07/14 12:36:17;;;;;;;8.20;1.88;;;17.80;99.90;;;;;;5022858;28;20014;-62
2021/07/14 12:38:52;;;;;;;4.43;1.00;;;17.80;99.90;;;;;;5024262;28;20045;-62
2021/07/14 12:41:17;;;;;;;1.42;1.08;;;17.80;99.90;;;;;;5026129;28;20057;-63
2021/07/14 12:43:43;;;;;;;1.95;0.70;;;17.80;99.90;;;;;;5028650;28;20064;-64
2021/07/14 12:46:09;;;;;;;4.00;0.80;;;17.80;99.90;;;;;;5024403;28;20518;-62
2021/07/14 12:48:34;;;;;;;5.85;1.23;;;17.80;99.90;;;;;;5021037;28;20210;-63
2021/07/14 12:51:00;;;;;;;2.30;1.10;;;17.70;99.90;;;;;;5026082;28;20068;-63
2021/07/14 12:53:25;;;;;;;0.85;0.63;;;17.70;99.90;;;;;;5023447;28;20117;-64
2021/07/14 12:55:53;;;;;;;0.82;0.77;;;17.70;99.90;;;;;;5027700;28;20104;-61
2021/07/14 12:58:22;;;;;;;1.65;0.60;;;17.70;99.90;;;;;;5032531;28;20052;-62